»·PEaware :: N805RJ F70-F70

N805RJ :: F70-F70

FLIGHT INFORMATION

Flight Status: Arrived
Operator: Privately registered:
United States
More flights under this callsign
Pilot: Rickie J. (22768)
Aircraft: CESSNA 172 SKYHAWK
(C172)
More flights by this aircraft type
Origin: F70 French Valley
United States
Destination: F70 French Valley
United States
More flights between these airports :: More routes between these airports
Route: HDF RAVON GAREY
File this flight plan on PilotEdge
Remarks:
Altitude:
(Current/Filed)
10,500ft
Speed:
(Current/Filed)
120kts
Departed: 18-Jul-20 06:56 PM
Arrived: 18-Jul-20 07:42 PM
Distance/Time
Traveled:
0nm/0:46
Distance/Time
To Go:
Arrived

Flight Plot

Page will automatically refresh every two minutes.

Flight plan parsing failed; only flown route is shown


Map Options




Map Legend


Flown Route
Filed Route
Departure Airport
Arrival Airport
Navaid (VOR, NDB)
Fix

Horizontal Profiles

Position Reports

Time Latitude Longitude Heading Altitude Ground
Speed
18-Jul-20 18:24 33.575605 -117.130579 131 1354ft 0kts
18-Jul-20 18:25 33.575605 -117.130579 131 1354ft 0kts
18-Jul-20 18:26 33.575605 -117.130579 131 1354ft 0kts
18-Jul-20 18:27 33.575605 -117.130579 131 1354ft 0kts
18-Jul-20 18:28 33.575605 -117.130579 131 1354ft 0kts
18-Jul-20 18:29 33.575605 -117.130579 131 1354ft 0kts
18-Jul-20 18:30 33.575605 -117.130579 131 1354ft 0kts
18-Jul-20 18:31 33.575605 -117.130579 131 1354ft 0kts
18-Jul-20 18:32 33.575605 -117.130579 131 1354ft 0kts
18-Jul-20 18:33 33.575605 -117.130579 131 1354ft 0kts
18-Jul-20 18:34 33.575605 -117.130579 131 1354ft 0kts
18-Jul-20 18:35 33.575605 -117.130579 131 1354ft 0kts
18-Jul-20 18:36 33.575605 -117.130579 131 1354ft 0kts
18-Jul-20 18:37 33.575605 -117.130579 131 1354ft 0kts
18-Jul-20 18:38 33.575605 -117.130579 131 1354ft 0kts
18-Jul-20 18:39 33.575605 -117.130579 131 1354ft 0kts
18-Jul-20 18:40 33.575605 -117.130579 131 1354ft 0kts
18-Jul-20 18:41 33.575605 -117.130579 131 1354ft 0kts
18-Jul-20 18:42 33.575605 -117.130579 131 1354ft 0kts
18-Jul-20 18:43 33.575605 -117.130579 131 1354ft 0kts
18-Jul-20 18:44 33.575605 -117.130579 131 1354ft 0kts
18-Jul-20 18:45 33.575605 -117.130579 131 1354ft 0kts
18-Jul-20 18:46 33.575605 -117.130579 131 1354ft 0kts
18-Jul-20 18:47 33.575434 -117.130293 96 1354ft 3kts
18-Jul-20 18:48 33.575957 -117.128829 12 1354ft 7kts
18-Jul-20 18:49 33.578610 -117.128132 11 1354ft 11kts
18-Jul-20 18:50 33.581834 -117.127451 345 1354ft 12kts
18-Jul-20 18:51 33.582383 -117.127482 85 1354ft 0kts
18-Jul-20 18:52 33.582383 -117.127482 85 1354ft 0kts
18-Jul-20 18:53 33.582281 -117.126949 104 1354ft 0kts
18-Jul-20 18:54 33.582221 -117.126642 103 1354ft 3kts
18-Jul-20 18:55 33.571412 -117.129198 192 1354ft 104kts
18-Jul-20 18:56 33.542333 -117.135810 188 2019ft 99kts
18-Jul-20 18:57 33.516217 -117.141481 188 2815ft 95kts
18-Jul-20 18:58 33.491840 -117.150319 237 3603ft 95kts
18-Jul-20 18:59 33.507764 -117.167211 7 4387ft 101kts
18-Jul-20 19:00 33.535191 -117.161658 8 5128ft 99kts
18-Jul-20 19:01 33.562658 -117.156227 8 5786ft 102kts
18-Jul-20 19:02 33.590737 -117.150726 8 6379ft 103kts
18-Jul-20 19:03 33.618124 -117.143881 356 6969ft 100kts
18-Jul-20 19:04 33.644866 -117.148707 345 7475ft 101kts
18-Jul-20 19:05 33.671643 -117.156004 344 7961ft 101kts
18-Jul-20 19:06 33.698132 -117.163427 345 8392ft 104kts
18-Jul-20 19:07 33.725774 -117.171202 345 8779ft 108kts
18-Jul-20 19:08 33.754318 -117.179238 345 9171ft 110kts
18-Jul-20 19:09 33.783019 -117.188577 339 9561ft 110kts
18-Jul-20 19:10 33.811554 -117.201167 338 9960ft 109kts
18-Jul-20 19:11 33.839910 -117.213822 338 10361ft 108kts
18-Jul-20 19:12 33.869708 -117.227136 338 10508ft 125kts
18-Jul-20 19:13 33.903520 -117.242239 338 10506ft 132kts
18-Jul-20 19:14 33.938062 -117.257697 338 10505ft 133kts
18-Jul-20 19:15 33.972508 -117.273127 338 10505ft 133kts
18-Jul-20 19:16 34.006790 -117.288498 338 10507ft 133kts
18-Jul-20 19:17 34.041591 -117.304135 339 10370ft 141kts
18-Jul-20 19:18 34.079282 -117.320557 353 9968ft 146kts
18-Jul-20 19:19 34.110905 -117.295991 44 9579ft 145kts
18-Jul-20 19:20 34.139972 -117.262807 44 9182ft 146kts
18-Jul-20 19:21 34.153696 -117.225262 127 8762ft 141kts
18-Jul-20 19:22 34.127207 -117.194966 140 8381ft 141kts
18-Jul-20 19:23 34.098826 -117.166667 141 8007ft 142kts
18-Jul-20 19:24 34.069169 -117.137756 142 7619ft 143kts
18-Jul-20 19:25 34.039846 -117.109420 142 7235ft 143kts
18-Jul-20 19:26 34.009727 -117.080316 142 6843ft 142kts
18-Jul-20 19:27 33.978966 -117.052784 164 6440ft 140kts
18-Jul-20 19:29 33.941202 -117.052375 185 6041ft 139kts
18-Jul-20 19:30 33.903245 -117.056284 186 5643ft 139kts
18-Jul-20 19:31 33.865913 -117.060208 186 5257ft 139kts
18-Jul-20 19:32 33.827349 -117.064251 186 4858ft 139kts
18-Jul-20 19:33 33.791707 -117.071044 194 4442ft 125kts
18-Jul-20 19:34 33.762371 -117.078785 195 4088ft 101kts
18-Jul-20 19:35 33.734866 -117.086062 195 3686ft 101kts
18-Jul-20 19:36 33.708141 -117.093068 197 3505ft 89kts
18-Jul-20 19:37 33.684151 -117.098908 196 3376ft 91kts
18-Jul-20 19:38 33.658503 -117.105796 196 2904ft 98kts
18-Jul-20 19:39 33.632637 -117.112716 197 2395ft 91kts
18-Jul-20 19:40 33.607914 -117.119346 196 1893ft 87kts
18-Jul-20 19:41 33.585974 -117.125386 191 1467ft 74kts
18-Jul-20 19:42 33.574782 -117.128396 255 1354ft 1kts
18-Jul-20 19:42 33.574629 -117.128943 239 1354ft 0kts
18-Jul-20 19:44 33.575877 -117.128848 12 1354ft 8kts
18-Jul-20 19:45 33.578667 -117.128119 11 1354ft 11kts
18-Jul-20 19:45 33.581417 -117.127386 12 1354ft 12kts
18-Jul-20 19:46 33.582360 -117.127478 96 1354ft 0kts
18-Jul-20 19:48 33.582361 -117.127478 96 1354ft 0kts
18-Jul-20 19:48 33.582361 -117.127478 96 1354ft 0kts
18-Jul-20 19:49 33.582360 -117.127478 96 1354ft 0kts
18-Jul-20 19:50 33.582360 -117.127478 96 1354ft 0kts
18-Jul-20 19:51 33.582361 -117.127478 96 1354ft 0kts
18-Jul-20 19:52 33.582361 -117.127478 96 1354ft 0kts
18-Jul-20 19:53 33.582361 -117.127478 96 1354ft 0kts
18-Jul-20 19:55 33.582360 -117.127478 96 1354ft 0kts
18-Jul-20 19:55 33.582360 -117.127478 96 1354ft 0kts

Navigation Log

Ident Type
Flight plan parsing failed, navigation log unavailable